Time;durP1;ratioP1;P1;durP2;ratioP2;P2;SDS_P1;SDS_P2;PMS_P1;PMS_P2;Temp;Humidity;BMP_temperature;BMP_pressure;BME280_temperature;BME280_humidity;BME280_pressure;Samples;Min_cycle;Max_cycle;Signal;HPM_P1;HPM_P2
2023/04/03 00:00:37;;;;;;;3.43;2.83;;;;;;;5.14;79.49;100112.72;1386242;94;22238;-87
2023/04/03 00:03:04;;;;;;;8.07;2.03;;;;;;;5.10;78.61;100115.23;1397459;94;22155;-82
2023/04/03 00:05:30;;;;;;;6.03;1.80;;;;;;;5.08;78.62;100114.51;1394395;94;22149;-85
2023/04/03 00:07:57;;;;;;;6.53;2.10;;;;;;;5.07;78.12;100106.30;1394275;93;23123;-87
2023/04/03 00:10:23;;;;;;;2.73;1.40;;;;;;;5.03;77.84;100114.03;1396646;94;23295;-83
2023/04/03 00:12:49;;;;;;;4.33;1.73;;;;;;;5.01;77.31;100102.84;1375283;94;22385;-87
2023/04/03 00:15:17;;;;;;;1.80;1.50;;;;;;;5.00;77.86;100105.09;1394882;93;22142;-89
2023/04/03 00:17:43;;;;;;;3.13;1.80;;;;;;;5.03;77.51;100107.47;1393350;94;22182;-87
2023/04/03 00:20:10;;;;;;;3.67;1.43;;;;;;;5.01;77.50;100105.47;1394097;94;23113;-88
2023/04/03 00:22:36;;;;;;;5.77;2.00;;;;;;;4.93;77.28;100095.08;1378198;94;22104;-85
2023/04/03 00:25:03;;;;;;;2.10;1.80;;;;;;;4.93;77.28;100095.08;1370072;94;21400;-83
2023/04/03 00:27:30;;;;;;;2.00;1.63;;;;;;;5.03;77.00;100099.59;1392121;94;22281;-80
2023/04/03 00:29:56;;;;;;;12.97;2.70;;;;;;;4.99;76.15;100106.88;1397509;91;22075;-81
2023/04/03 00:32:22;;;;;;;2.83;1.93;;;;;;;5.01;76.76;100102.84;1407007;91;22212;-80
2023/04/03 00:34:48;;;;;;;3.23;1.57;;;;;;;5.00;76.73;100107.71;1382324;93;22082;-81
2023/04/03 00:37:14;;;;;;;3.47;1.87;;;;;;;4.94;76.53;100104.60;1393812;91;22296;-90
2023/04/03 00:39:40;;;;;;;4.23;2.00;;;;;;;4.97;75.92;100118.79;1397591;94;22120;-86
2023/04/03 00:42:07;;;;;;;3.10;2.30;;;;;;;4.98;76.11;100112.61;1394884;94;22171;-87
2023/04/03 00:44:39;;;;;;;2.93;2.40;;;;;;;4.96;76.26;100114.51;1399705;94;22127;-87
2023/04/03 00:47:09;;;;;;;4.33;2.80;;;;;;;4.98;76.81;100123.58;1389714;94;22200;-86
2023/04/03 00:49:37;;;;;;;4.00;2.20;;;;;;;4.94;76.04;100133.45;1396761;93;22150;-90
2023/04/03 00:52:06;;;;;;;7.07;2.00;;;;;;;4.94;76.20;100134.77;1377048;94;21594;-90
2023/04/03 00:54:35;;;;;;;7.30;2.40;;;;;;;4.98;76.40;100141.45;1391335;94;22232;-89
2023/04/03 00:57:01;;;;;;;3.33;2.00;;;;;;;4.92;76.40;100142.39;1393025;93;23258;-87
2023/04/03 00:59:32;;;;;;;6.70;2.50;;;;;;;4.92;76.71;100144.56;1392934;93;22303;-90
2023/04/03 01:01:59;;;;;;;;;;;;;;;4.91;76.45;100154.67;1396208;94;23171;-89
2023/04/03 01:04:39;;;;;;;2.40;1.83;;;;;;;4.93;76.68;100148.84;1381385;94;20305;-86
2023/04/03 01:07:16;;;;;;;3.03;2.07;;;;;;;4.83;76.32;100157.52;1398721;94;22199;-88
2023/04/03 01:09:43;;;;;;;2.47;1.87;;;;;;;4.83;76.81;100143.93;1401222;94;22139;-91
2023/04/03 01:12:29;;;;;;;1.93;1.50;;;;;;;4.86;76.46;100154.22;1396383;94;23389;-87
2023/04/03 01:15:06;;;;;;;2.43;1.70;;;;;;;4.80;76.37;100161.69;1405700;94;22156;-82
2023/04/03 01:17:46;;;;;;;2.10;1.40;;;;;;;4.77;75.88;100152.75;1396150;94;22270;-84
2023/04/03 01:20:36;;;;;;;5.90;1.77;;;;;;;4.74;76.26;100155.95;1396162;93;22155;-89
2023/04/03 01:23:26;;;;;;;1.77;1.60;;;;;;;4.71;76.28;100157.98;1391359;93;21585;-86
2023/04/03 01:25:55;;;;;;;2.50;1.50;;;;;;;4.71;75.84;100159.30;1390195;93;23195;-87
2023/04/03 01:28:30;;;;;;;2.90;2.27;;;;;;;4.66;75.87;100165.36;1395317;94;22155;-89
2023/04/03 01:31:37;;;;;;;3.70;1.80;;;;;;;4.60;75.96;100152.23;1395595;93;22292;-90
2023/04/03 01:34:03;;;;;;;2.33;1.20;;;;;;;4.62;75.90;100162.63;1394220;93;22360;-87
2023/04/03 01:36:32;;;;;;;2.50;2.00;;;;;;;4.58;75.95;100162.50;1393718;94;22221;-86
2023/04/03 01:39:00;;;;;;;2.40;1.80;;;;;;;4.63;75.90;100178.70;1398582;93;22267;-86
2023/04/03 01:41:27;;;;;;;2.90;1.80;;;;;;;4.62;75.98;100170.48;1394130;93;22984;-87
2023/04/03 01:43:54;;;;;;;2.40;1.70;;;;;;;4.59;75.95;100176.79;1395961;94;22133;-87
2023/04/03 01:46:22;;;;;;;23.40;2.57;;;;;;;4.53;75.62;100180.70;1387617;93;22155;-88
2023/04/03 01:48:48;;;;;;;2.60;1.67;;;;;;;4.56;75.80;100187.98;1379002;94;23115;-87
2023/04/03 01:51:15;;;;;;;3.23;2.00;;;;;;;4.51;75.56;100184.39;1396479;94;23070;-89
2023/04/03 01:53:41;;;;;;;3.57;2.70;;;;;;;4.49;75.61;100171.41;1391036;93;23258;-91
2023/04/03 01:56:08;;;;;;;4.00;2.50;;;;;;;4.51;75.49;100179.98;1389834;93;22067;-92
2023/04/03 01:58:34;;;;;;;4.87;2.53;;;;;;;4.51;75.32;100181.28;1388753;94;22245;-88
2023/04/03 02:01:01;;;;;;;3.13;2.17;;;;;;;4.51;75.25;100182.59;1375210;94;22380;-89
2023/04/03 02:03:27;;;;;;;2.70;2.37;;;;;;;4.49;75.49;100181.89;1392669;94;22074;-91
2023/04/03 02:05:54;;;;;;;7.60;2.03;;;;;;;4.49;75.31;100185.83;1398785;94;22148;-87
2023/04/03 02:08:21;;;;;;;6.03;2.10;;;;;;;4.50;75.51;100186.17;1393989;94;22105;-87
2023/04/03 02:10:49;;;;;;;2.63;2.00;;;;;;;4.50;74.96;100186.17;1395724;94;22083;-84
2023/04/03 02:13:17;;;;;;;3.33;2.10;;;;;;;4.46;75.62;100176.89;1396010;94;22296;-85
2023/04/03 02:15:45;;;;;;;14.23;3.20;;;;;;;4.38;75.36;100163.52;1392059;93;22053;-91
2023/04/03 02:18:12;;;;;;;2.70;1.97;;;;;;;4.44;76.16;100178.78;1396347;93;23197;-84
2023/04/03 02:20:38;;;;;;;4.63;2.57;;;;;;;4.35;75.51;100164.22;1389959;93;22267;-86
2023/04/03 02:23:05;;;;;;;4.30;2.50;;;;;;;4.35;75.51;100164.22;1376625;94;23030;-85
2023/04/03 02:25:32;;;;;;;2.30;1.70;;;;;;;4.31;76.19;100157.05;1390272;94;22061;-85
2023/04/03 02:27:58;;;;;;;3.63;2.07;;;;;;;4.34;76.34;100183.02;1392127;93;22284;-87
2023/04/03 02:30:26;;;;;;;4.00;2.27;;;;;;;4.27;76.42;100185.27;1392144;94;22318;-88
2023/04/03 02:32:52;;;;;;;3.13;1.63;;;;;;;4.27;76.42;100185.27;1390098;94;22995;-87
2023/04/03 02:35:20;;;;;;;3.20;2.30;;;;;;;4.29;76.56;100182.06;1392875;93;22281;-89
2023/04/03 02:37:46;;;;;;;3.03;1.90;;;;;;;4.23;76.57;100181.21;1394097;94;22148;-88
2023/04/03 02:40:13;;;;;;;3.00;1.87;;;;;;;4.12;76.54;100181.64;1390654;93;22111;-87
2023/04/03 02:42:40;;;;;;;2.43;1.67;;;;;;;4.12;76.54;100181.64;1392762;94;21970;-89
2023/04/03 02:45:07;;;;;;;4.37;2.00;;;;;;;4.15;76.81;100188.80;1392453;94;21948;-89
2023/04/03 02:47:33;;;;;;;3.33;1.67;;;;;;;4.07;76.35;100191.96;1387262;94;22006;-86
2023/04/03 02:49:59;;;;;;;4.90;1.50;;;;;;;4.06;77.05;100182.44;1395002;94;22192;-88
2023/04/03 02:52:26;;;;;;;2.70;1.77;;;;;;;3.99;76.73;100187.75;1399218;93;21842;-88
2023/04/03 02:54:52;;;;;;;13.17;3.53;;;;;;;3.92;77.34;100169.52;1389771;93;22067;-89
2023/04/03 02:57:19;;;;;;;2.13;1.67;;;;;;;3.85;77.40;100176.13;1395227;94;22180;-90
2023/04/03 02:59:46;;;;;;;2.77;1.50;;;;;;;3.85;77.40;100176.13;1388508;93;22650;-85
2023/04/03 03:02:12;;;;;;;2.10;1.37;;;;;;;3.83;76.78;100184.59;1388019;93;21915;-90
2023/04/03 03:04:38;;;;;;;2.33;1.50;;;;;;;3.83;76.78;100184.59;1393916;94;22033;-87
2023/04/03 03:07:05;;;;;;;1.77;1.47;;;;;;;3.88;76.23;100190.30;1388850;94;21954;-88
2023/04/03 03:09:31;;;;;;;2.60;1.70;;;;;;;3.88;76.23;100190.30;1396262;94;21945;-85
2023/04/03 03:11:57;;;;;;;2.30;1.60;;;;;;;3.78;76.86;100188.83;1390535;94;22358;-89
2023/04/03 03:14:25;;;;;;;4.40;1.67;;;;;;;3.78;76.86;100188.83;1365526;94;21886;-85
2023/04/03 03:16:51;;;;;;;2.73;1.50;;;;;;;3.68;76.96;100189.11;1396182;94;21926;-88
2023/04/03 03:19:18;;;;;;;2.70;1.57;;;;;;;3.69;77.17;100192.59;1393697;94;21921;-90
2023/04/03 03:21:44;;;;;;;6.23;1.87;;;;;;;3.61;77.51;100179.56;1397063;94;21953;-89
2023/04/03 03:24:11;;;;;;;2.30;1.80;;;;;;;3.68;77.45;100193.03;1394566;94;22789;-88
2023/04/03 03:26:38;;;;;;;2.20;1.67;;;;;;;3.68;77.45;100193.03;1394695;94;22171;-87
2023/04/03 03:29:04;;;;;;;2.77;2.07;;;;;;;3.60;77.53;100193.60;1376396;94;21863;-89
2023/04/03 03:31:31;;;;;;;2.80;1.83;;;;;;;3.56;77.86;100201.77;1400481;93;21916;-86
2023/04/03 03:33:57;;;;;;;3.00;1.90;;;;;;;3.50;78.10;100205.65;1391847;93;21818;-90
2023/04/03 03:36:23;;;;;;;3.57;1.77;;;;;;;3.46;78.22;100198.97;1391267;94;21844;-91
2023/04/03 03:38:50;;;;;;;2.60;1.80;;;;;;;3.46;78.22;100198.97;1399561;93;21794;-90
2023/04/03 03:41:16;;;;;;;6.37;2.90;;;;;;;3.47;77.94;100201.11;1395901;93;22811;-86
2023/04/03 03:43:42;;;;;;;3.57;2.20;;;;;;;3.45;78.16;100212.14;1393688;94;22763;-86
2023/04/03 03:46:08;;;;;;;3.60;2.23;;;;;;;3.45;78.20;100205.12;1396695;94;22663;-88
2023/04/03 03:48:35;;;;;;;2.80;2.00;;;;;;;3.45;78.13;100211.67;1393896;94;22713;-92
2023/04/03 03:51:01;;;;;;;3.27;2.07;;;;;;;3.45;78.13;100219.52;1377147;94;21703;-92
2023/04/03 03:53:31;;;;;;;3.00;1.70;;;;;;;3.43;78.02;100216.20;1386784;94;21849;-90
2023/04/03 03:55:57;;;;;;;2.80;1.90;;;;;;;3.39;78.16;100214.72;1393079;94;21747;-87
2023/04/03 03:58:23;;;;;;;2.33;1.67;;;;;;;3.41;78.11;100203.68;1402886;91;21797;-90
2023/04/03 04:00:50;;;;;;;2.40;1.43;;;;;;;3.41;78.11;100203.68;1397978;94;21872;-88
2023/04/03 04:03:16;;;;;;;1.73;1.30;;;;;;;3.39;77.65;100216.89;1401688;94;22123;-88
2023/04/03 04:05:44;;;;;;;7.73;1.93;;;;;;;3.39;77.65;100216.89;1395669;94;22891;-88
2023/04/03 04:08:10;;;;;;;3.00;1.63;;;;;;;3.42;77.75;100211.05;1396971;94;21857;-89
2023/04/03 04:10:39;;;;;;;2.33;1.20;;;;;;;3.43;77.60;100207.03;1394368;94;21760;-91
2023/04/03 04:13:08;;;;;;;2.13;1.30;;;;;;;3.45;77.46;100217.38;1400132;94;21811;-85
2023/04/03 04:15:34;;;;;;;3.33;1.93;;;;;;;3.41;77.26;100218.07;1399924;93;21857;-85
2023/04/03 04:18:01;;;;;;;2.53;1.40;;;;;;;3.45;77.53;100230.45;1394087;94;21680;-89
2023/04/03 04:20:27;;;;;;;1.47;1.10;;;;;;;3.45;77.53;100230.45;1392654;94;21791;-88
2023/04/03 04:22:54;;;;;;;3.03;1.50;;;;;;;3.42;77.54;100228.89;1392399;94;22833;-90
2023/04/03 04:25:20;;;;;;;4.50;2.80;;;;;;;3.42;77.54;100228.89;1391266;94;21939;-89
2023/04/03 04:27:47;;;;;;;2.07;1.50;;;;;;;3.39;77.36;100233.89;1398856;94;21906;-92
2023/04/03 04:30:17;;;;;;;1.90;1.37;;;;;;;3.38;77.21;100233.51;1390062;94;21842;-84
2023/04/03 04:32:45;;;;;;;2.20;1.27;;;;;;;3.38;77.24;100228.75;1388636;93;21857;-91
2023/04/03 04:35:12;;;;;;;3.80;1.57;;;;;;;3.36;76.96;100230.63;1396732;93;22315;-90
2023/04/03 04:37:38;;;;;;;3.00;2.03;;;;;;;3.38;77.30;100230.06;1371486;94;22125;-90
2023/04/03 04:40:06;;;;;;;1.63;1.20;;;;;;;3.34;77.13;100234.67;1404542;94;21713;-94
2023/04/03 04:42:32;;;;;;;3.50;2.10;;;;;;;3.35;77.18;100236.81;1372571;94;21686;-93
2023/04/03 04:44:59;;;;;;;2.10;1.60;;;;;;;3.39;77.34;100239.57;1417584;94;21872;-87
2023/04/03 04:47:29;;;;;;;3.77;1.50;;;;;;;3.39;77.34;100239.57;1390699;93;22002;-85
2023/04/03 04:49:56;;;;;;;3.57;1.43;;;;;;;3.38;77.65;100245.75;1396205;94;21889;-89
2023/04/03 04:52:22;;;;;;;1.27;1.17;;;;;;;3.42;77.13;100248.52;1388703;94;22758;-84
2023/04/03 04:54:48;;;;;;;1.10;1.00;;;;;;;3.43;77.41;100248.90;1391790;93;22593;-89
2023/04/03 04:57:15;;;;;;;2.90;1.20;;;;;;;3.46;77.56;100248.69;1400920;94;22054;-92
2023/04/03 04:59:42;;;;;;;1.33;1.23;;;;;;;3.47;76.95;100249.52;1395695;94;21588;-87
2023/04/03 05:02:08;;;;;;;1.57;1.43;;;;;;;3.53;77.02;100243.85;1394094;94;21846;-85
2023/04/03 05:04:34;;;;;;;3.33;1.33;;;;;;;3.52;76.72;100241.71;1397843;94;21776;-90
2023/04/03 05:07:01;;;;;;;3.33;1.30;;;;;;;3.44;76.74;100238.78;1388330;94;21851;-86
2023/04/03 05:09:27;;;;;;;1.10;1.00;;;;;;;3.61;76.97;100246.30;1392432;91;21827;-90
2023/04/03 05:11:54;;;;;;;1.37;0.90;;;;;;;3.59;76.89;100239.02;1404627;94;21976;-88
2023/04/03 05:14:20;;;;;;;2.23;1.20;;;;;;;3.61;76.63;100248.91;1396354;94;22357;-87
2023/04/03 05:16:47;;;;;;;1.10;0.90;;;;;;;3.61;76.63;100248.91;1392198;94;21765;-89
2023/04/03 05:19:14;;;;;;;1.33;1.00;;;;;;;3.67;76.15;100250.74;1399830;94;22022;-83
2023/04/03 05:21:40;;;;;;;1.17;1.07;;;;;;;3.71;75.39;100241.72;1395465;93;21729;-86
2023/04/03 05:24:09;;;;;;;0.80;0.80;;;;;;;3.71;75.39;100241.72;1392974;94;21829;-90
2023/04/03 05:26:35;;;;;;;1.97;1.17;;;;;;;3.71;75.29;100247.81;1390632;93;22929;-89
2023/04/03 05:29:01;;;;;;;1.50;1.17;;;;;;;3.73;75.20;100251.62;1398636;93;21990;-86
2023/04/03 05:31:29;;;;;;;2.30;1.70;;;;;;;3.78;74.32;100250.83;1381887;94;21917;-87
2023/04/03 05:33:55;;;;;;;3.97;1.87;;;;;;;3.83;74.36;100258.72;1395099;93;21925;-84
2023/04/03 05:36:22;;;;;;;2.73;1.80;;;;;;;3.88;74.23;100256.23;1390530;94;22096;-83
2023/04/03 05:42:49;;;;;;;4.53;1.87;;;;;;;4.09;73.01;100254.72;1392120;94;22663;-87
2023/04/03 05:45:16;;;;;;;2.33;1.50;;;;;;;4.09;73.01;100254.72;1390817;94;22901;-88
2023/04/03 05:48:46;;;;;;;1.30;1.20;;;;;;;4.12;73.38;100257.59;1413960;93;21910;-88
2023/04/03 05:51:17;;;;;;;1.83;1.20;;;;;;;4.23;73.23;100259.80;1327599;94;22673;-86
2023/04/03 05:53:45;;;;;;;3.08;1.02;;;;;;;4.25;72.30;100257.05;1326205;94;21719;-83
2023/04/03 05:56:11;;;;;;;2.23;1.20;;;;;;;4.33;72.78;100264.37;1325223;94;21266;-88
2023/04/03 05:58:38;;;;;;;1.30;0.93;;;;;;;4.34;71.98;100256.38;1326528;94;22147;-83
2023/04/03 06:01:05;;;;;;;3.97;1.00;;;;;;;4.35;71.49;100252.00;1326672;94;22036;-86
2023/04/03 06:03:31;;;;;;;1.10;0.70;;;;;;;4.42;72.19;100267.14;1325728;93;22085;-87
2023/04/03 06:05:58;;;;;;;4.50;1.33;;;;;;;4.46;71.46;100259.44;1310105;95;22059;-84
2023/04/03 06:12:23;;;;;;;1.27;0.90;;;;;;;4.65;71.03;100268.08;1475675;92;21933;-77
2023/04/03 06:14:49;;;;;;;3.40;1.00;;;;;;;4.69;70.61;100269.98;1330635;93;21977;-86
2023/04/03 06:17:18;;;;;;;2.73;1.10;;;;;;;4.65;70.08;100275.11;1381050;94;22104;-85
2023/04/03 06:19:45;;;;;;;2.40;1.30;;;;;;;4.59;69.32;100275.56;1395369;94;22170;-87
2023/04/03 06:22:12;;;;;;;2.03;1.00;;;;;;;4.68;70.34;100269.16;1394781;94;22326;-87
2023/04/03 06:24:39;;;;;;;1.53;1.40;;;;;;;4.68;69.52;100272.26;1391385;94;22145;-87
2023/04/03 06:27:05;;;;;;;2.30;1.30;;;;;;;4.71;69.10;100276.80;1393079;93;23083;-87
2023/04/03 06:29:31;;;;;;;2.07;1.40;;;;;;;4.68;69.15;100276.19;1391142;94;22132;-89
2023/04/03 06:31:58;;;;;;;6.87;1.43;;;;;;;4.73;70.22;100281.94;1393915;93;22573;-83
2023/04/03 06:34:24;;;;;;;1.23;0.97;;;;;;;4.78;68.64;100281.61;1371724;94;22178;-86
2023/04/03 06:36:51;;;;;;;1.00;0.90;;;;;;;4.89;68.17;100263.26;1396495;94;21436;-86
2023/04/03 06:39:22;;;;;;;3.50;1.07;;;;;;;4.82;66.77;100290.91;1388834;94;22275;-88
2023/04/03 06:41:50;;;;;;;1.83;1.07;;;;;;;4.94;67.45;100286.05;1466940;93;21979;-90
2023/04/03 06:44:17;;;;;;;2.60;0.97;;;;;;;4.98;67.28;100292.75;1324681;93;22901;-87
2023/04/03 06:46:44;;;;;;;2.00;0.93;;;;;;;5.05;66.55;100281.31;1460095;93;22058;-86
2023/04/03 06:49:11;;;;;;;8.00;1.40;;;;;;;5.06;66.36;100284.29;1324505;93;22960;-88
2023/04/03 06:51:37;;;;;;;6.20;1.60;;;;;;;5.22;66.58;100294.48;1331894;94;21310;-88
2023/04/03 06:54:06;;;;;;;3.17;1.03;;;;;;;5.32;67.26;100291.49;1326772;94;22091;-83
2023/04/03 06:56:33;;;;;;;3.93;1.00;;;;;;;5.52;65.65;100286.86;1325001;94;21407;-84
2023/04/03 06:58:59;;;;;;;1.33;0.73;;;;;;;5.39;64.12;100296.65;1327090;94;21311;-86
2023/04/03 07:01:28;;;;;;;1.67;0.80;;;;;;;5.33;62.29;100295.33;1348059;93;22323;-88
2023/04/03 07:03:56;;;;;;;7.60;2.03;;;;;;;5.41;62.73;100284.25;1398069;94;22229;-85
2023/04/03 07:06:22;;;;;;;6.97;1.30;;;;;;;5.49;62.94;100291.52;1392800;94;21385;-86
2023/04/03 07:08:49;;;;;;;4.57;2.07;;;;;;;5.39;61.33;100294.86;1391863;93;21547;-87
2023/04/03 07:11:16;;;;;;;4.80;0.73;;;;;;;5.52;60.63;100300.47;1374619;94;21421;-85
2023/04/03 07:13:42;;;;;;;1.97;1.00;;;;;;;5.74;61.42;100289.98;1335293;93;21289;-77
2023/04/03 07:16:09;;;;;;;1.70;0.57;;;;;;;5.74;60.92;100303.59;1391018;94;22238;-88
2023/04/03 07:18:36;;;;;;;4.90;1.00;;;;;;;5.85;60.52;100297.02;1393464;93;21362;-87
2023/04/03 07:21:04;;;;;;;6.20;0.70;;;;;;;5.97;60.07;100309.22;1399093;94;21510;-87
2023/04/03 07:23:31;;;;;;;7.87;0.90;;;;;;;6.07;60.40;100304.06;1395093;94;22405;-86
2023/04/03 07:25:57;;;;;;;6.00;0.90;;;;;;;6.22;59.89;100311.23;1388191;93;21371;-93
2023/04/03 07:28:24;;;;;;;6.50;1.50;;;;;;;6.15;59.53;100303.45;1397593;94;21496;-86
2023/04/03 07:30:53;;;;;;;16.73;1.27;;;;;;;6.01;58.78;100312.43;1397696;94;21539;-89
2023/04/03 07:33:22;;;;;;;2.30;0.50;;;;;;;6.19;60.13;100311.47;1395003;93;21488;-86
2023/04/03 07:35:49;;;;;;;10.73;1.37;;;;;;;6.11;57.45;100329.16;1390192;94;21304;-89
2023/04/03 07:38:16;;;;;;;2.40;0.80;;;;;;;6.14;57.66;100327.59;1399917;94;21407;-88
2023/04/03 07:40:52;;;;;;;3.97;1.00;;;;;;;6.09;57.83;100322.69;1390621;94;22329;-83
2023/04/03 07:43:20;;;;;;;12.23;1.27;;;;;;;6.01;57.75;100330.37;1394578;93;21627;-84
2023/04/03 07:45:50;;;;;;;6.67;0.80;;;;;;;6.07;57.22;100322.45;1389688;93;21474;-83
2023/04/03 07:48:21;;;;;;;2.20;1.00;;;;;;;6.39;57.89;100322.54;1399440;94;21482;-80
2023/04/03 07:50:47;;;;;;;6.57;1.23;;;;;;;6.35;56.59;100328.16;1393255;94;22410;-80
2023/04/03 07:53:14;;;;;;;0.97;0.43;;;;;;;6.55;59.60;100322.13;1377642;94;21444;-79
2023/04/03 07:55:43;;;;;;;1.73;0.67;;;;;;;6.39;55.85;100317.28;1393048;93;21466;-86
2023/04/03 07:58:16;;;;;;;5.73;0.70;;;;;;;6.27;56.84;100338.81;1398011;94;21421;-89
2023/04/03 08:00:44;;;;;;;4.10;1.20;;;;;;;6.21;55.86;100323.51;1402006;93;21488;-88
2023/04/03 08:03:12;;;;;;;8.70;1.27;;;;;;;6.22;55.83;100317.31;1394596;94;21333;-90
2023/04/03 08:05:44;;;;;;;29.37;2.53;;;;;;;6.33;56.27;100323.03;1392846;94;21504;-88
2023/04/03 08:08:13;;;;;;;22.33;4.13;;;;;;;6.48;55.34;100321.80;1398335;94;21466;-88
2023/04/03 08:10:40;;;;;;;12.33;1.97;;;;;;;6.60;55.69;100326.53;1393710;94;21355;-86
2023/04/03 08:13:08;;;;;;;8.27;1.60;;;;;;;6.57;55.04;100326.78;1399483;94;21318;-89
2023/04/03 08:15:35;;;;;;;9.47;1.60;;;;;;;6.62;55.27;100329.88;1394502;93;21362;-88
2023/04/03 08:18:02;;;;;;;10.93;0.90;;;;;;;6.47;56.41;100337.67;1396146;93;21421;-91
2023/04/03 08:20:29;;;;;;;7.93;2.00;;;;;;;6.62;55.42;100335.14;1393652;93;21512;-88
2023/04/03 08:22:55;;;;;;;4.00;0.70;;;;;;;6.53;55.12;100335.86;1393887;94;21488;-90
2023/04/03 08:25:22;;;;;;;3.87;0.80;;;;;;;6.41;56.23;100346.06;1397769;94;22220;-89
2023/04/03 08:27:48;;;;;;;11.87;1.37;;;;;;;6.30;56.40;100350.40;1393597;94;21624;-90
2023/04/03 08:30:15;;;;;;;5.17;0.73;;;;;;;6.45;57.26;100344.39;1393050;94;22353;-89
2023/04/03 08:32:44;;;;;;;3.50;0.67;;;;;;;6.49;55.84;100338.39;1393871;93;21355;-85
2023/04/03 08:35:12;;;;;;;1.73;0.80;;;;;;;6.37;55.99;100339.39;1389624;93;21377;-90
2023/04/03 08:37:39;;;;;;;1.47;0.67;;;;;;;6.56;57.59;100351.42;1399570;94;21402;-90
2023/04/03 08:40:10;;;;;;;2.27;0.77;;;;;;;6.56;56.13;100347.48;1391124;94;21580;-88
2023/04/03 08:42:58;;;;;;;11.43;2.03;;;;;;;6.50;56.30;100351.89;1389437;94;21466;-85
2023/04/03 08:45:53;;;;;;;0.53;0.50;;;;;;;6.66;56.06;100352.33;1392127;92;21582;-92
2023/04/03 08:48:37;;;;;;;9.17;1.47;;;;;;;6.62;55.48;100343.03;1387067;94;21450;-88
2023/04/03 08:51:08;;;;;;;8.43;1.90;;;;;;;6.53;55.99;100346.38;1393089;94;21450;-90
2023/04/03 08:53:38;;;;;;;6.73;0.70;;;;;;;6.69;56.27;100348.14;1395465;94;21651;-85
2023/04/03 08:56:09;;;;;;;3.50;0.80;;;;;;;6.68;54.66;100355.69;1374278;94;21643;-87
2023/04/03 08:58:56;;;;;;;7.90;0.70;;;;;;;6.64;54.92;100358.19;1372488;94;21517;-87
2023/04/03 09:01:37;;;;;;;5.10;1.00;;;;;;;6.77;55.25;100367.25;1376511;93;21413;-90
2023/04/03 09:04:13;;;;;;;;;;;;;;;6.86;55.89;100367.81;1397050;94;21577;-91
2023/04/03 09:06:42;;;;;;;6.87;1.40;;;;;;;6.97;56.20;100358.56;1383102;94;20297;-91
2023/04/03 09:09:35;;;;;;;1.43;1.10;;;;;;;6.76;53.83;100351.09;1391896;94;21518;-90
2023/04/03 09:12:28;;;;;;;10.80;1.00;;;;;;;7.12;53.96;100352.51;1399380;94;21592;-87
2023/04/03 09:15:12;;;;;;;13.37;1.50;;;;;;;7.05;53.68;100356.63;1394980;94;21378;-87
2023/04/03 09:17:55;;;;;;;8.40;1.50;;;;;;;7.29;54.06;100359.01;1395947;94;21487;-90
2023/04/03 09:20:51;;;;;;;3.63;0.80;;;;;;;7.34;55.11;100356.00;1394388;93;21644;-88
2023/04/03 09:23:41;;;;;;;13.57;1.27;;;;;;;6.98;54.42;100368.60;1402487;93;21459;-85
2023/04/03 09:26:16;;;;;;;3.43;1.00;;;;;;;6.96;55.56;100370.06;1397584;94;21562;-90
2023/04/03 09:28:44;;;;;;;3.17;0.97;;;;;;;6.92;54.22;100380.95;1398069;94;22243;-89
2023/04/03 09:31:24;;;;;;;6.63;1.40;;;;;;;7.03;55.70;100375.65;1389861;94;21420;-89
2023/04/03 09:33:55;;;;;;;1.43;0.93;;;;;;;6.80;55.25;100378.84;1389292;94;22360;-88
2023/04/03 09:36:41;;;;;;;;;;;;;;;7.16;54.46;100392.56;1396187;94;21480;-88
2023/04/03 09:39:18;;;;;;;5.70;1.67;;;;;;;7.08;53.22;100380.06;1378704;95;20789;-88
2023/04/03 09:41:58;;;;;;;4.50;1.43;;;;;;;7.23;53.69;100382.73;1394429;94;21415;-91
2023/04/03 09:44:38;;;;;;;15.48;1.40;;;;;;;7.34;52.47;100388.91;1395014;93;21532;-90
2023/04/03 09:47:25;;;;;;;1.27;0.90;;;;;;;7.40;53.34;100397.13;1401391;94;22940;-89
2023/04/03 09:50:15;;;;;;;8.67;1.13;;;;;;;7.41;51.75;100395.33;1399831;94;21621;-90
2023/04/03 09:52:44;;;;;;;7.27;1.77;;;;;;;7.51;51.83;100402.83;1389016;94;21495;-88
2023/04/03 09:55:29;;;;;;;3.53;0.93;;;;;;;7.59;52.87;100409.58;1392611;93;21459;-90
2023/04/03 09:58:03;;;;;;;13.87;2.13;;;;;;;7.89;53.92;100405.33;1401593;93;21370;-88
2023/04/03 10:00:39;;;;;;;8.23;1.23;;;;;;;7.85;52.36;100399.95;1376753;94;21842;-87
2023/04/03 10:03:30;;;;;;;17.37;1.40;;;;;;;7.84;52.48;100400.44;1392387;93;21414;-87
2023/04/03 10:05:57;;;;;;;8.25;0.80;;;;;;;8.08;51.79;100414.62;1398570;94;22374;-91
2023/04/03 10:08:34;;;;;;;3.17;0.70;;;;;;;7.90;51.31;100410.45;1384027;94;21428;-90
2023/04/03 10:11:15;;;;;;;12.03;1.00;;;;;;;7.65;51.30;100420.08;1393084;93;21480;-87
2023/04/03 10:13:59;;;;;;;17.03;2.50;;;;;;;7.88;51.64;100422.09;1391044;94;22341;-89
2023/04/03 10:16:37;;;;;;;5.13;1.20;;;;;;;7.88;51.91;100419.45;1395732;93;21392;-91
2023/04/03 10:19:38;;;;;;;24.27;1.90;;;;;;;7.27;52.37;100428.05;1396529;94;22332;-86
2023/04/03 10:22:29;;;;;;;4.20;1.00;;;;;;;7.69;54.12;100418.39;1407626;94;21441;-90
2023/04/03 10:25:07;;;;;;;3.27;0.70;;;;;;;7.72;50.75;100420.42;1391398;94;21458;-88
2023/04/03 10:28:01;;;;;;;0.77;0.60;;;;;;;7.51;51.75;100425.21;1396763;94;22288;-91
2023/04/03 10:30:48;;;;;;;4.13;0.70;;;;;;;7.56;51.88;100420.86;1390916;93;21385;-90
2023/04/03 10:33:57;;;;;;;2.13;0.87;;;;;;;7.49;52.45;100417.91;1399659;94;21384;-84
2023/04/03 10:37:13;;;;;;;8.33;1.47;;;;;;;7.79;54.26;100412.33;1387525;93;21607;-87
2023/04/03 10:40:03;;;;;;;15.87;2.30;;;;;;;7.85;51.91;100410.49;1394134;94;21406;-88
2023/04/03 10:42:51;;;;;;;8.77;1.53;;;;;;;7.83;52.71;100404.54;1398283;94;21577;-91
2023/04/03 10:45:54;;;;;;;3.30;0.97;;;;;;;7.94;53.19;100400.97;1393202;94;21458;-89
2023/04/03 10:48:51;;;;;;;3.27;0.93;;;;;;;7.89;51.43;100403.53;1395404;94;21443;-85
2023/04/03 10:51:35;;;;;;;6.97;0.80;;;;;;;7.80;51.30;100414.86;1389494;94;21643;-89
2023/04/03 10:54:33;;;;;;;3.33;1.00;;;;;;;7.75;51.18;100418.84;1394638;94;21444;-89
2023/04/03 10:57:07;;;;;;;5.43;1.30;;;;;;;7.39;51.79;100422.25;1395953;93;21547;-86
2023/04/03 10:59:51;;;;;;;2.67;0.90;;;;;;;7.85;51.42;100413.13;1390183;93;21426;-87
2023/04/03 11:02:33;;;;;;;14.70;1.83;;;;;;;7.72;51.16;100419.94;1390998;94;21703;-89
2023/04/03 11:05:10;;;;;;;3.77;1.10;;;;;;;7.57;51.94;100429.96;1380520;94;21414;-89
2023/04/03 11:07:42;;;;;;;7.33;1.13;;;;;;;7.73;51.57;100415.49;1388766;94;22391;-90
2023/04/03 11:10:19;;;;;;;8.43;1.63;;;;;;;7.97;50.65;100410.79;1392970;94;21687;-91
2023/04/03 11:13:06;;;;;;;1.20;0.80;;;;;;;8.14;51.17;100425.99;1387793;94;21584;-90
2023/04/03 11:15:33;;;;;;;6.23;1.20;;;;;;;8.29;50.44;100420.36;1400998;93;21695;-92
2023/04/03 11:18:23;;;;;;;4.20;1.00;;;;;;;8.50;51.10;100421.64;1400832;93;22449;-89
2023/04/03 11:21:22;;;;;;;2.22;0.93;;;;;;;8.18;50.67;100434.95;1387165;94;21503;-92
2023/04/03 11:23:49;;;;;;;6.50;0.90;;;;;;;7.99;51.07;100437.83;1389268;94;21356;-92
2023/04/03 11:26:20;;;;;;;2.70;0.80;;;;;;;7.81;50.16;100432.81;1389070;94;21876;-88
2023/04/03 11:29:01;;;;;;;1.40;1.30;;;;;;;7.66;49.02;100429.19;1399474;94;21443;-90
2023/04/03 11:31:43;;;;;;;;;;;;;;;7.53;50.93;100433.80;1392289;94;21465;-84
2023/04/03 11:34:21;;;;;;;10.60;1.33;;;;;;;7.36;51.40;100429.09;1374470;94;20646;-90
2023/04/03 11:36:52;;;;;;;1.63;1.03;;;;;;;7.55;52.19;100427.92;1400282;93;21569;-79
2023/04/03 11:39:30;;;;;;;4.50;1.30;;;;;;;7.55;52.56;100428.41;1389862;92;21326;-78
2023/04/03 11:42:18;;;;;;;9.83;1.93;;;;;;;7.53;50.71;100441.70;1411326;91;21407;-78
2023/04/03 11:44:46;;;;;;;9.73;1.40;;;;;;;7.35;51.44;100427.44;1384533;92;21482;-82
2023/04/03 11:47:35;;;;;;;5.83;1.20;;;;;;;7.66;54.12;100432.30;1375160;94;21466;-88
2023/04/03 11:50:06;;;;;;;41.20;4.13;;;;;;;7.32;53.07;100414.53;1398933;94;21414;-92
2023/04/03 11:52:48;;;;;;;6.53;1.10;;;;;;;7.56;53.61;100420.86;1398602;94;21377;-93
2023/04/03 11:55:28;;;;;;;4.70;1.40;;;;;;;7.32;53.00;100436.42;1377048;94;21560;-85
2023/04/03 11:58:03;;;;;;;18.48;2.62;;;;;;;7.19;52.65;100433.11;1391716;94;21357;-93
2023/04/03 12:00:52;;;;;;;11.63;1.90;;;;;;;7.27;52.89;100431.17;1397403;93;21591;-88
2023/04/03 12:03:30;;;;;;;5.60;1.83;;;;;;;7.47;53.07;100422.46;1394008;94;21383;-88